sensor_id;sensor_type;location;lat;lon;timestamp;P1;durP1;ratioP1;P2;durP2;ratioP2
17363;SDS011;8799;43.594;13.526;2024-01-27T00:01:33;17.63;;;9.57;;
17363;SDS011;8799;43.594;13.526;2024-01-27T00:04:01;17.50;;;9.07;;
17363;SDS011;8799;43.594;13.526;2024-01-27T00:06:29;20.17;;;9.70;;
17363;SDS011;8799;43.594;13.526;2024-01-27T00:08:56;16.67;;;9.27;;
17363;SDS011;8799;43.594;13.526;2024-01-27T00:11:24;16.57;;;9.57;;
17363;SDS011;8799;43.594;13.526;2024-01-27T00:13:52;16.43;;;9.73;;
17363;SDS011;8799;43.594;13.526;2024-01-27T00:16:19;16.70;;;9.03;;
17363;SDS011;8799;43.594;13.526;2024-01-27T00:18:49;18.57;;;10.30;;
17363;SDS011;8799;43.594;13.526;2024-01-27T00:21:17;15.70;;;9.13;;
17363;SDS011;8799;43.594;13.526;2024-01-27T00:23:45;19.07;;;9.90;;
17363;SDS011;8799;43.594;13.526;2024-01-27T00:26:13;18.37;;;10.17;;
17363;SDS011;8799;43.594;13.526;2024-01-27T00:28:44;17.33;;;9.30;;
17363;SDS011;8799;43.594;13.526;2024-01-27T00:31:13;18.63;;;10.60;;
17363;SDS011;8799;43.594;13.526;2024-01-27T00:33:41;18.13;;;10.00;;
17363;SDS011;8799;43.594;13.526;2024-01-27T00:36:10;17.57;;;10.03;;
17363;SDS011;8799;43.594;13.526;2024-01-27T00:38:38;20.07;;;10.30;;
17363;SDS011;8799;43.594;13.526;2024-01-27T00:41:06;19.57;;;9.63;;
17363;SDS011;8799;43.594;13.526;2024-01-27T00:43:35;17.50;;;10.53;;
17363;SDS011;8799;43.594;13.526;2024-01-27T00:46:03;16.70;;;9.90;;
17363;SDS011;8799;43.594;13.526;2024-01-27T00:48:34;18.47;;;9.63;;
17363;SDS011;8799;43.594;13.526;2024-01-27T00:51:01;17.27;;;9.07;;
17363;SDS011;8799;43.594;13.526;2024-01-27T00:53:31;17.70;;;9.90;;
17363;SDS011;8799;43.594;13.526;2024-01-27T00:55:58;15.93;;;9.67;;
17363;SDS011;8799;43.594;13.526;2024-01-27T00:58:26;16.40;;;9.63;;
17363;SDS011;8799;43.594;13.526;2024-01-27T01:00:54;15.60;;;8.77;;
17363;SDS011;8799;43.594;13.526;2024-01-27T01:03:22;18.63;;;9.67;;
17363;SDS011;8799;43.594;13.526;2024-01-27T01:05:50;17.67;;;10.30;;
17363;SDS011;8799;43.594;13.526;2024-01-27T01:08:18;20.77;;;9.93;;
17363;SDS011;8799;43.594;13.526;2024-01-27T01:10:47;20.57;;;10.73;;
17363;SDS011;8799;43.594;13.526;2024-01-27T01:13:16;21.40;;;9.97;;
17363;SDS011;8799;43.594;13.526;2024-01-27T01:15:44;17.77;;;10.23;;
17363;SDS011;8799;43.594;13.526;2024-01-27T01:18:11;15.80;;;9.77;;
17363;SDS011;8799;43.594;13.526;2024-01-27T01:20:39;18.77;;;10.10;;
17363;SDS011;8799;43.594;13.526;2024-01-27T01:23:07;16.10;;;10.17;;
17363;SDS011;8799;43.594;13.526;2024-01-27T01:25:35;20.80;;;11.07;;
17363;SDS011;8799;43.594;13.526;2024-01-27T01:28:06;13.03;;;8.40;;
17363;SDS011;8799;43.594;13.526;2024-01-27T01:30:34;15.20;;;9.43;;
17363;SDS011;8799;43.594;13.526;2024-01-27T01:33:01;18.13;;;10.47;;
17363;SDS011;8799;43.594;13.526;2024-01-27T01:35:29;16.87;;;9.17;;
17363;SDS011;8799;43.594;13.526;2024-01-27T01:37:57;17.17;;;9.80;;
17363;SDS011;8799;43.594;13.526;2024-01-27T01:40:25;19.77;;;10.63;;
17363;SDS011;8799;43.594;13.526;2024-01-27T01:42:53;19.20;;;9.93;;
17363;SDS011;8799;43.594;13.526;2024-01-27T01:45:23;18.97;;;9.90;;
17363;SDS011;8799;43.594;13.526;2024-01-27T01:47:51;21.37;;;10.47;;
17363;SDS011;8799;43.594;13.526;2024-01-27T01:50:18;22.67;;;10.43;;
17363;SDS011;8799;43.594;13.526;2024-01-27T01:52:46;19.60;;;10.90;;
17363;SDS011;8799;43.594;13.526;2024-01-27T01:55:15;18.17;;;10.90;;
17363;SDS011;8799;43.594;13.526;2024-01-27T01:57:43;22.23;;;10.60;;
17363;SDS011;8799;43.594;13.526;2024-01-27T02:00:12;19.63;;;11.30;;
17363;SDS011;8799;43.594;13.526;2024-01-27T02:02:44;20.00;;;10.27;;
17363;SDS011;8799;43.594;13.526;2024-01-27T02:05:12;18.20;;;10.27;;
17363;SDS011;8799;43.594;13.526;2024-01-27T02:07:40;17.00;;;10.03;;
17363;SDS011;8799;43.594;13.526;2024-01-27T02:10:12;18.77;;;9.77;;
17363;SDS011;8799;43.594;13.526;2024-01-27T02:12:40;22.73;;;10.80;;
17363;SDS011;8799;43.594;13.526;2024-01-27T02:15:09;18.57;;;10.30;;
17363;SDS011;8799;43.594;13.526;2024-01-27T02:17:38;18.77;;;10.57;;
17363;SDS011;8799;43.594;13.526;2024-01-27T02:20:09;16.97;;;9.33;;
17363;SDS011;8799;43.594;13.526;2024-01-27T02:22:37;19.37;;;10.93;;
17363;SDS011;8799;43.594;13.526;2024-01-27T02:25:05;16.40;;;9.87;;
17363;SDS011;8799;43.594;13.526;2024-01-27T02:27:36;20.07;;;10.20;;
17363;SDS011;8799;43.594;13.526;2024-01-27T02:30:04;17.67;;;10.13;;
17363;SDS011;8799;43.594;13.526;2024-01-27T02:32:32;19.27;;;10.60;;
17363;SDS011;8799;43.594;13.526;2024-01-27T02:35:00;19.93;;;10.10;;
17363;SDS011;8799;43.594;13.526;2024-01-27T02:37:28;16.87;;;10.30;;
17363;SDS011;8799;43.594;13.526;2024-01-27T02:39:55;18.23;;;10.53;;
17363;SDS011;8799;43.594;13.526;2024-01-27T02:42:25;16.47;;;10.53;;
17363;SDS011;8799;43.594;13.526;2024-01-27T02:44:53;17.07;;;9.40;;
17363;SDS011;8799;43.594;13.526;2024-01-27T02:47:20;19.57;;;10.17;;
17363;SDS011;8799;43.594;13.526;2024-01-27T02:49:48;19.27;;;11.17;;
17363;SDS011;8799;43.594;13.526;2024-01-27T02:52:16;18.30;;;10.67;;
17363;SDS011;8799;43.594;13.526;2024-01-27T02:54:44;22.27;;;11.20;;
17363;SDS011;8799;43.594;13.526;2024-01-27T02:57:12;19.40;;;10.73;;
17363;SDS011;8799;43.594;13.526;2024-01-27T02:59:44;18.80;;;10.97;;
17363;SDS011;8799;43.594;13.526;2024-01-27T03:02:12;17.10;;;10.73;;
17363;SDS011;8799;43.594;13.526;2024-01-27T03:04:40;17.17;;;10.60;;
17363;SDS011;8799;43.594;13.526;2024-01-27T03:07:08;19.33;;;10.37;;
17363;SDS011;8799;43.594;13.526;2024-01-27T03:09:36;18.17;;;10.73;;
17363;SDS011;8799;43.594;13.526;2024-01-27T03:12:03;18.30;;;9.67;;
17363;SDS011;8799;43.594;13.526;2024-01-27T03:14:31;19.33;;;10.53;;
17363;SDS011;8799;43.594;13.526;2024-01-27T03:17:00;20.43;;;10.93;;
17363;SDS011;8799;43.594;13.526;2024-01-27T03:19:29;17.37;;;10.20;;
17363;SDS011;8799;43.594;13.526;2024-01-27T03:21:57;18.27;;;10.47;;
17363;SDS011;8799;43.594;13.526;2024-01-27T03:24:25;18.87;;;10.67;;
17363;SDS011;8799;43.594;13.526;2024-01-27T03:26:53;20.60;;;10.73;;
17363;SDS011;8799;43.594;13.526;2024-01-27T03:29:21;18.63;;;10.47;;
17363;SDS011;8799;43.594;13.526;2024-01-27T03:31:49;19.73;;;10.63;;
17363;SDS011;8799;43.594;13.526;2024-01-27T03:34:18;22.47;;;10.80;;
17363;SDS011;8799;43.594;13.526;2024-01-27T03:36:50;19.27;;;11.20;;
17363;SDS011;8799;43.594;13.526;2024-01-27T03:39:18;19.83;;;10.77;;
17363;SDS011;8799;43.594;13.526;2024-01-27T03:41:46;19.07;;;10.47;;
17363;SDS011;8799;43.594;13.526;2024-01-27T03:44:14;20.80;;;10.43;;
17363;SDS011;8799;43.594;13.526;2024-01-27T03:46:41;20.20;;;10.17;;
17363;SDS011;8799;43.594;13.526;2024-01-27T03:49:10;20.07;;;10.97;;
17363;SDS011;8799;43.594;13.526;2024-01-27T03:51:40;20.60;;;10.97;;
17363;SDS011;8799;43.594;13.526;2024-01-27T03:54:08;19.33;;;10.83;;
17363;SDS011;8799;43.594;13.526;2024-01-27T03:56:36;20.60;;;10.93;;
17363;SDS011;8799;43.594;13.526;2024-01-27T03:59:04;20.80;;;11.27;;
17363;SDS011;8799;43.594;13.526;2024-01-27T04:01:34;18.37;;;10.30;;
17363;SDS011;8799;43.594;13.526;2024-01-27T04:04:01;21.23;;;10.73;;
17363;SDS011;8799;43.594;13.526;2024-01-27T04:06:35;18.83;;;10.77;;
17363;SDS011;8799;43.594;13.526;2024-01-27T04:09:05;19.93;;;10.77;;
17363;SDS011;8799;43.594;13.526;2024-01-27T04:11:34;20.97;;;10.83;;
17363;SDS011;8799;43.594;13.526;2024-01-27T04:14:02;17.37;;;10.07;;
17363;SDS011;8799;43.594;13.526;2024-01-27T04:16:30;21.67;;;10.87;;
17363;SDS011;8799;43.594;13.526;2024-01-27T04:18:59;19.13;;;10.83;;
17363;SDS011;8799;43.594;13.526;2024-01-27T04:21:26;22.20;;;11.43;;
17363;SDS011;8799;43.594;13.526;2024-01-27T04:23:57;18.20;;;10.73;;
17363;SDS011;8799;43.594;13.526;2024-01-27T04:26:27;21.90;;;10.10;;
17363;SDS011;8799;43.594;13.526;2024-01-27T04:28:55;20.13;;;10.57;;
17363;SDS011;8799;43.594;13.526;2024-01-27T04:31:22;16.00;;;10.47;;
17363;SDS011;8799;43.594;13.526;2024-01-27T04:33:50;22.63;;;11.53;;
17363;SDS011;8799;43.594;13.526;2024-01-27T04:36:24;19.23;;;11.10;;
17363;SDS011;8799;43.594;13.526;2024-01-27T04:38:53;24.80;;;11.20;;
17363;SDS011;8799;43.594;13.526;2024-01-27T04:41:21;20.43;;;11.50;;
17363;SDS011;8799;43.594;13.526;2024-01-27T04:43:51;19.00;;;11.33;;
17363;SDS011;8799;43.594;13.526;2024-01-27T04:46:21;18.63;;;11.07;;
17363;SDS011;8799;43.594;13.526;2024-01-27T04:48:49;20.30;;;10.63;;
17363;SDS011;8799;43.594;13.526;2024-01-27T04:51:16;21.33;;;10.93;;
17363;SDS011;8799;43.594;13.526;2024-01-27T04:53:44;18.47;;;10.87;;
17363;SDS011;8799;43.594;13.526;2024-01-27T04:56:12;18.17;;;11.00;;
17363;SDS011;8799;43.594;13.526;2024-01-27T04:58:40;21.33;;;11.70;;
17363;SDS011;8799;43.594;13.526;2024-01-27T05:01:09;20.07;;;11.30;;
17363;SDS011;8799;43.594;13.526;2024-01-27T05:03:37;21.03;;;11.53;;
17363;SDS011;8799;43.594;13.526;2024-01-27T05:06:07;20.00;;;11.13;;
17363;SDS011;8799;43.594;13.526;2024-01-27T05:08:35;19.73;;;10.03;;
17363;SDS011;8799;43.594;13.526;2024-01-27T05:11:03;21.17;;;11.73;;
17363;SDS011;8799;43.594;13.526;2024-01-27T05:13:31;19.40;;;10.50;;
17363;SDS011;8799;43.594;13.526;2024-01-27T05:15:59;20.30;;;11.07;;
17363;SDS011;8799;43.594;13.526;2024-01-27T05:18:28;21.37;;;12.40;;
17363;SDS011;8799;43.594;13.526;2024-01-27T05:20:55;19.90;;;10.27;;
17363;SDS011;8799;43.594;13.526;2024-01-27T05:23:23;21.13;;;11.07;;
17363;SDS011;8799;43.594;13.526;2024-01-27T05:25:51;20.10;;;11.03;;
17363;SDS011;8799;43.594;13.526;2024-01-27T05:28:19;19.87;;;10.63;;
17363;SDS011;8799;43.594;13.526;2024-01-27T05:30:47;16.67;;;9.90;;
17363;SDS011;8799;43.594;13.526;2024-01-27T05:33:14;23.10;;;10.50;;
17363;SDS011;8799;43.594;13.526;2024-01-27T05:35:45;16.00;;;9.87;;
17363;SDS011;8799;43.594;13.526;2024-01-27T05:38:13;19.07;;;11.00;;
17363;SDS011;8799;43.594;13.526;2024-01-27T05:40:41;17.57;;;9.63;;
17363;SDS011;8799;43.594;13.526;2024-01-27T05:43:11;16.90;;;10.03;;
17363;SDS011;8799;43.594;13.526;2024-01-27T05:45:38;18.40;;;10.00;;
17363;SDS011;8799;43.594;13.526;2024-01-27T05:48:07;18.97;;;10.90;;
17363;SDS011;8799;43.594;13.526;2024-01-27T05:50:35;15.90;;;9.37;;
17363;SDS011;8799;43.594;13.526;2024-01-27T05:53:04;20.77;;;10.70;;
17363;SDS011;8799;43.594;13.526;2024-01-27T05:55:32;19.97;;;10.70;;
17363;SDS011;8799;43.594;13.526;2024-01-27T05:58:01;19.70;;;10.63;;
17363;SDS011;8799;43.594;13.526;2024-01-27T06:00:29;18.23;;;10.90;;
17363;SDS011;8799;43.594;13.526;2024-01-27T06:02:57;21.33;;;10.73;;
17363;SDS011;8799;43.594;13.526;2024-01-27T06:05:25;18.33;;;10.07;;
17363;SDS011;8799;43.594;13.526;2024-01-27T06:07:55;18.03;;;9.53;;
17363;SDS011;8799;43.594;13.526;2024-01-27T06:10:25;16.00;;;9.87;;
17363;SDS011;8799;43.594;13.526;2024-01-27T06:12:53;18.60;;;10.03;;
17363;SDS011;8799;43.594;13.526;2024-01-27T06:15:22;19.27;;;10.60;;
17363;SDS011;8799;43.594;13.526;2024-01-27T06:17:49;18.63;;;10.13;;
17363;SDS011;8799;43.594;13.526;2024-01-27T06:20:17;21.73;;;9.90;;
17363;SDS011;8799;43.594;13.526;2024-01-27T06:22:44;20.57;;;10.70;;
17363;SDS011;8799;43.594;13.526;2024-01-27T06:25:12;17.03;;;9.40;;
17363;SDS011;8799;43.594;13.526;2024-01-27T06:27:42;20.00;;;10.17;;
17363;SDS011;8799;43.594;13.526;2024-01-27T06:30:10;14.80;;;9.10;;
17363;SDS011;8799;43.594;13.526;2024-01-27T06:32:38;15.70;;;9.17;;
17363;SDS011;8799;43.594;13.526;2024-01-27T06:35:06;15.30;;;7.97;;
17363;SDS011;8799;43.594;13.526;2024-01-27T06:37:34;14.50;;;8.43;;
17363;SDS011;8799;43.594;13.526;2024-01-27T06:40:02;18.70;;;8.63;;
17363;SDS011;8799;43.594;13.526;2024-01-27T06:42:30;16.90;;;8.10;;
17363;SDS011;8799;43.594;13.526;2024-01-27T06:45:00;14.03;;;8.53;;
17363;SDS011;8799;43.594;13.526;2024-01-27T06:47:28;15.43;;;8.30;;
17363;SDS011;8799;43.594;13.526;2024-01-27T06:49:56;14.57;;;8.23;;
17363;SDS011;8799;43.594;13.526;2024-01-27T06:52:24;16.23;;;9.40;;
17363;SDS011;8799;43.594;13.526;2024-01-27T06:54:52;14.50;;;7.87;;
17363;SDS011;8799;43.594;13.526;2024-01-27T06:57:20;15.33;;;8.67;;
17363;SDS011;8799;43.594;13.526;2024-01-27T06:59:48;15.43;;;8.33;;
17363;SDS011;8799;43.594;13.526;2024-01-27T07:02:19;18.40;;;8.60;;
17363;SDS011;8799;43.594;13.526;2024-01-27T07:04:50;13.60;;;7.47;;
17363;SDS011;8799;43.594;13.526;2024-01-27T07:07:18;14.63;;;8.53;;
17363;SDS011;8799;43.594;13.526;2024-01-27T07:09:46;15.63;;;8.20;;
17363;SDS011;8799;43.594;13.526;2024-01-27T07:12:14;15.00;;;8.40;;
17363;SDS011;8799;43.594;13.526;2024-01-27T07:14:42;13.80;;;8.10;;
17363;SDS011;8799;43.594;13.526;2024-01-27T07:17:11;11.93;;;7.40;;
17363;SDS011;8799;43.594;13.526;2024-01-27T07:19:41;13.90;;;7.70;;
17363;SDS011;8799;43.594;13.526;2024-01-27T07:22:09;14.33;;;8.00;;
17363;SDS011;8799;43.594;13.526;2024-01-27T07:24:37;14.83;;;8.10;;
17363;SDS011;8799;43.594;13.526;2024-01-27T07:27:05;14.63;;;7.60;;
17363;SDS011;8799;43.594;13.526;2024-01-27T07:29:33;14.13;;;8.57;;
17363;SDS011;8799;43.594;13.526;2024-01-27T07:32:01;12.77;;;8.30;;
17363;SDS011;8799;43.594;13.526;2024-01-27T07:34:29;14.63;;;7.47;;
17363;SDS011;8799;43.594;13.526;2024-01-27T07:36:58;13.73;;;7.73;;
17363;SDS011;8799;43.594;13.526;2024-01-27T07:39:26;12.47;;;6.90;;
17363;SDS011;8799;43.594;13.526;2024-01-27T07:41:54;14.63;;;8.33;;
17363;SDS011;8799;43.594;13.526;2024-01-27T07:44:22;14.40;;;7.23;;
17363;SDS011;8799;43.594;13.526;2024-01-27T07:46:50;13.87;;;7.83;;
17363;SDS011;8799;43.594;13.526;2024-01-27T07:49:21;14.53;;;7.90;;
17363;SDS011;8799;43.594;13.526;2024-01-27T07:51:49;13.60;;;8.70;;
17363;SDS011;8799;43.594;13.526;2024-01-27T07:54:18;12.07;;;6.77;;
17363;SDS011;8799;43.594;13.526;2024-01-27T07:56:46;13.93;;;6.67;;
17363;SDS011;8799;43.594;13.526;2024-01-27T07:59:13;14.27;;;7.43;;
17363;SDS011;8799;43.594;13.526;2024-01-27T08:01:41;17.47;;;7.90;;
17363;SDS011;8799;43.594;13.526;2024-01-27T08:04:09;15.10;;;7.13;;
17363;SDS011;8799;43.594;13.526;2024-01-27T08:06:45;15.30;;;8.07;;
17363;SDS011;8799;43.594;13.526;2024-01-27T08:09:14;18.87;;;9.97;;
17363;SDS011;8799;43.594;13.526;2024-01-27T08:11:43;22.63;;;10.87;;
17363;SDS011;8799;43.594;13.526;2024-01-27T08:14:11;22.90;;;12.27;;
17363;SDS011;8799;43.594;13.526;2024-01-27T08:16:39;22.57;;;11.67;;
17363;SDS011;8799;43.594;13.526;2024-01-27T08:19:07;21.30;;;11.90;;
17363;SDS011;8799;43.594;13.526;2024-01-27T08:21:34;21.97;;;11.67;;
17363;SDS011;8799;43.594;13.526;2024-01-27T08:24:02;25.00;;;11.83;;
17363;SDS011;8799;43.594;13.526;2024-01-27T08:26:30;23.50;;;12.77;;
17363;SDS011;8799;43.594;13.526;2024-01-27T08:28:59;20.27;;;12.00;;
17363;SDS011;8799;43.594;13.526;2024-01-27T08:31:27;21.97;;;11.80;;
17363;SDS011;8799;43.594;13.526;2024-01-27T08:33:58;24.37;;;13.10;;
17363;SDS011;8799;43.594;13.526;2024-01-27T08:36:26;22.57;;;12.80;;
17363;SDS011;8799;43.594;13.526;2024-01-27T08:38:54;27.77;;;13.50;;
17363;SDS011;8799;43.594;13.526;2024-01-27T08:41:22;27.17;;;13.20;;
17363;SDS011;8799;43.594;13.526;2024-01-27T08:43:50;24.93;;;13.33;;
17363;SDS011;8799;43.594;13.526;2024-01-27T08:46:19;31.97;;;13.97;;
17363;SDS011;8799;43.594;13.526;2024-01-27T08:48:47;27.97;;;14.07;;
17363;SDS011;8799;43.594;13.526;2024-01-27T08:51:14;20.03;;;11.17;;
17363;SDS011;8799;43.594;13.526;2024-01-27T08:53:43;24.93;;;12.00;;
17363;SDS011;8799;43.594;13.526;2024-01-27T08:56:14;23.90;;;10.73;;
17363;SDS011;8799;43.594;13.526;2024-01-27T08:58:42;23.93;;;13.00;;
17363;SDS011;8799;43.594;13.526;2024-01-27T09:01:10;26.13;;;12.27;;
17363;SDS011;8799;43.594;13.526;2024-01-27T09:03:41;29.47;;;11.53;;
17363;SDS011;8799;43.594;13.526;2024-01-27T09:06:10;20.23;;;11.30;;
17363;SDS011;8799;43.594;13.526;2024-01-27T09:08:37;20.30;;;11.37;;
17363;SDS011;8799;43.594;13.526;2024-01-27T09:11:05;24.87;;;11.13;;
17363;SDS011;8799;43.594;13.526;2024-01-27T09:13:34;22.17;;;10.63;;
17363;SDS011;8799;43.594;13.526;2024-01-27T09:16:02;19.93;;;10.57;;
17363;SDS011;8799;43.594;13.526;2024-01-27T09:18:30;20.33;;;10.13;;
17363;SDS011;8799;43.594;13.526;2024-01-27T09:21:00;23.07;;;10.80;;
17363;SDS011;8799;43.594;13.526;2024-01-27T09:23:28;19.50;;;10.03;;
17363;SDS011;8799;43.594;13.526;2024-01-27T09:25:56;23.60;;;10.03;;
17363;SDS011;8799;43.594;13.526;2024-01-27T09:28:24;20.37;;;9.80;;
17363;SDS011;8799;43.594;13.526;2024-01-27T09:30:52;20.33;;;10.13;;
17363;SDS011;8799;43.594;13.526;2024-01-27T09:33:19;21.73;;;10.70;;
17363;SDS011;8799;43.594;13.526;2024-01-27T09:35:48;22.27;;;10.43;;
17363;SDS011;8799;43.594;13.526;2024-01-27T09:38:17;18.20;;;9.23;;
17363;SDS011;8799;43.594;13.526;2024-01-27T09:40:45;19.43;;;10.03;;
17363;SDS011;8799;43.594;13.526;2024-01-27T09:43:13;17.07;;;9.70;;
17363;SDS011;8799;43.594;13.526;2024-01-27T09:45:42;23.87;;;10.47;;
17363;SDS011;8799;43.594;13.526;2024-01-27T09:48:10;23.57;;;10.87;;
17363;SDS011;8799;43.594;13.526;2024-01-27T09:50:38;22.07;;;10.60;;
17363;SDS011;8799;43.594;13.526;2024-01-27T09:53:07;17.87;;;9.43;;
17363;SDS011;8799;43.594;13.526;2024-01-27T09:55:36;21.77;;;10.63;;
17363;SDS011;8799;43.594;13.526;2024-01-27T09:58:04;18.97;;;9.43;;
17363;SDS011;8799;43.594;13.526;2024-01-27T10:00:33;20.13;;;10.33;;
17363;SDS011;8799;43.594;13.526;2024-01-27T10:03:02;18.90;;;11.10;;
17363;SDS011;8799;43.594;13.526;2024-01-27T10:05:31;17.77;;;9.97;;
17363;SDS011;8799;43.594;13.526;2024-01-27T10:08:00;25.07;;;11.57;;
17363;SDS011;8799;43.594;13.526;2024-01-27T10:10:27;20.83;;;10.63;;
17363;SDS011;8799;43.594;13.526;2024-01-27T10:12:57;22.27;;;10.27;;
17363;SDS011;8799;43.594;13.526;2024-01-27T10:15:25;20.83;;;11.47;;
17363;SDS011;8799;43.594;13.526;2024-01-27T10:18:03;21.13;;;11.07;;
17363;SDS011;8799;43.594;13.526;2024-01-27T10:20:33;20.53;;;11.10;;
17363;SDS011;8799;43.594;13.526;2024-01-27T10:23:09;21.33;;;11.13;;
17363;SDS011;8799;43.594;13.526;2024-01-27T10:25:38;18.40;;;10.63;;
17363;SDS011;8799;43.594;13.526;2024-01-27T10:28:07;18.73;;;10.67;;
17363;SDS011;8799;43.594;13.526;2024-01-27T10:30:37;20.10;;;10.13;;
17363;SDS011;8799;43.594;13.526;2024-01-27T10:35:41;20.03;;;10.20;;
17363;SDS011;8799;43.594;13.526;2024-01-27T10:38:08;19.10;;;10.87;;
17363;SDS011;8799;43.594;13.526;2024-01-27T10:40:37;20.87;;;10.50;;
17363;SDS011;8799;43.594;13.526;2024-01-27T10:43:06;18.73;;;10.73;;
17363;SDS011;8799;43.594;13.526;2024-01-27T10:45:37;19.90;;;10.27;;
17363;SDS011;8799;43.594;13.526;2024-01-27T10:50:41;22.37;;;10.63;;
17363;SDS011;8799;43.594;13.526;2024-01-27T10:53:09;24.00;;;11.43;;
17363;SDS011;8799;43.594;13.526;2024-01-27T10:55:42;18.63;;;10.17;;
17363;SDS011;8799;43.594;13.526;2024-01-27T10:58:12;20.33;;;11.23;;
17363;SDS011;8799;43.594;13.526;2024-01-27T11:00:41;20.17;;;10.93;;
17363;SDS011;8799;43.594;13.526;2024-01-27T11:03:10;18.83;;;10.37;;
17363;SDS011;8799;43.594;13.526;2024-01-27T11:05:38;20.97;;;11.37;;
17363;SDS011;8799;43.594;13.526;2024-01-27T11:08:07;19.80;;;10.77;;
17363;SDS011;8799;43.594;13.526;2024-01-27T11:10:36;18.57;;;10.67;;
17363;SDS011;8799;43.594;13.526;2024-01-27T11:13:04;21.13;;;10.87;;
17363;SDS011;8799;43.594;13.526;2024-01-27T11:15:32;19.33;;;10.43;;
17363;SDS011;8799;43.594;13.526;2024-01-27T11:18:02;18.90;;;10.57;;
17363;SDS011;8799;43.594;13.526;2024-01-27T11:20:31;17.73;;;9.77;;
17363;SDS011;8799;43.594;13.526;2024-01-27T11:23:08;20.07;;;10.47;;
17363;SDS011;8799;43.594;13.526;2024-01-27T11:25:36;21.00;;;10.83;;
17363;SDS011;8799;43.594;13.526;2024-01-27T11:28:10;22.03;;;11.53;;
17363;SDS011;8799;43.594;13.526;2024-01-27T11:30:39;18.13;;;10.97;;
17363;SDS011;8799;43.594;13.526;2024-01-27T11:33:09;18.60;;;10.87;;
17363;SDS011;8799;43.594;13.526;2024-01-27T11:35:37;21.67;;;11.83;;
17363;SDS011;8799;43.594;13.526;2024-01-27T11:38:04;25.47;;;13.37;;
17363;SDS011;8799;43.594;13.526;2024-01-27T11:40:32;28.67;;;13.33;;
17363;SDS011;8799;43.594;13.526;2024-01-27T11:43:00;22.77;;;11.77;;
17363;SDS011;8799;43.594;13.526;2024-01-27T11:45:28;21.80;;;12.67;;
17363;SDS011;8799;43.594;13.526;2024-01-27T11:47:56;29.00;;;14.70;;
17363;SDS011;8799;43.594;13.526;2024-01-27T11:50:25;27.50;;;14.63;;
17363;SDS011;8799;43.594;13.526;2024-01-27T11:52:53;37.53;;;18.13;;
17363;SDS011;8799;43.594;13.526;2024-01-27T11:55:21;50.97;;;21.60;;
17363;SDS011;8799;43.594;13.526;2024-01-27T11:57:49;51.27;;;24.23;;
17363;SDS011;8799;43.594;13.526;2024-01-27T12:00:17;61.43;;;27.70;;
17363;SDS011;8799;43.594;13.526;2024-01-27T12:02:45;69.50;;;26.53;;
17363;SDS011;8799;43.594;13.526;2024-01-27T12:05:18;59.33;;;27.67;;
17363;SDS011;8799;43.594;13.526;2024-01-27T12:07:47;80.23;;;30.37;;
17363;SDS011;8799;43.594;13.526;2024-01-27T12:10:15;77.37;;;32.00;;
17363;SDS011;8799;43.594;13.526;2024-01-27T12:12:43;78.90;;;32.90;;
17363;SDS011;8799;43.594;13.526;2024-01-27T12:15:10;78.60;;;33.03;;
17363;SDS011;8799;43.594;13.526;2024-01-27T12:17:40;76.13;;;34.83;;
17363;SDS011;8799;43.594;13.526;2024-01-27T12:20:14;76.47;;;33.97;;
17363;SDS011;8799;43.594;13.526;2024-01-27T12:22:43;78.37;;;34.23;;
17363;SDS011;8799;43.594;13.526;2024-01-27T12:25:13;84.70;;;36.03;;
17363;SDS011;8799;43.594;13.526;2024-01-27T12:27:41;84.93;;;35.63;;
17363;SDS011;8799;43.594;13.526;2024-01-27T12:30:09;79.80;;;33.60;;
17363;SDS011;8799;43.594;13.526;2024-01-27T12:32:37;82.13;;;36.03;;
17363;SDS011;8799;43.594;13.526;2024-01-27T12:35:05;75.60;;;34.37;;
17363;SDS011;8799;43.594;13.526;2024-01-27T12:37:34;82.77;;;34.67;;
17363;SDS011;8799;43.594;13.526;2024-01-27T12:40:01;73.80;;;33.13;;
17363;SDS011;8799;43.594;13.526;2024-01-27T12:42:31;70.23;;;32.17;;
17363;SDS011;8799;43.594;13.526;2024-01-27T12:44:58;74.57;;;31.33;;
17363;SDS011;8799;43.594;13.526;2024-01-27T12:47:26;76.80;;;33.30;;
17363;SDS011;8799;43.594;13.526;2024-01-27T12:49:54;69.50;;;30.90;;
17363;SDS011;8799;43.594;13.526;2024-01-27T12:52:22;77.20;;;32.57;;
17363;SDS011;8799;43.594;13.526;2024-01-27T12:54:50;64.73;;;29.00;;
17363;SDS011;8799;43.594;13.526;2024-01-27T12:57:19;64.10;;;29.37;;
17363;SDS011;8799;43.594;13.526;2024-01-27T12:59:49;64.93;;;30.03;;
17363;SDS011;8799;43.594;13.526;2024-01-27T13:02:16;56.27;;;29.77;;
17363;SDS011;8799;43.594;13.526;2024-01-27T13:04:44;58.20;;;26.83;;
17363;SDS011;8799;43.594;13.526;2024-01-27T13:07:11;56.60;;;25.30;;
17363;SDS011;8799;43.594;13.526;2024-01-27T13:09:39;57.90;;;24.97;;
17363;SDS011;8799;43.594;13.526;2024-01-27T13:12:06;48.30;;;24.27;;
17363;SDS011;8799;43.594;13.526;2024-01-27T13:14:34;54.93;;;23.67;;
17363;SDS011;8799;43.594;13.526;2024-01-27T13:17:04;48.60;;;22.47;;
17363;SDS011;8799;43.594;13.526;2024-01-27T13:19:32;45.33;;;20.87;;
17363;SDS011;8799;43.594;13.526;2024-01-27T13:22:00;50.93;;;22.37;;
17363;SDS011;8799;43.594;13.526;2024-01-27T13:24:28;39.77;;;20.43;;
17363;SDS011;8799;43.594;13.526;2024-01-27T13:26:56;42.00;;;20.33;;
17363;SDS011;8799;43.594;13.526;2024-01-27T13:29:24;40.20;;;19.90;;
17363;SDS011;8799;43.594;13.526;2024-01-27T13:31:52;45.57;;;21.17;;
17363;SDS011;8799;43.594;13.526;2024-01-27T13:34:21;37.70;;;19.30;;
17363;SDS011;8799;43.594;13.526;2024-01-27T13:36:49;38.83;;;18.03;;
17363;SDS011;8799;43.594;13.526;2024-01-27T13:39:18;39.60;;;18.80;;
17363;SDS011;8799;43.594;13.526;2024-01-27T13:41:46;37.80;;;19.10;;
17363;SDS011;8799;43.594;13.526;2024-01-27T13:44:14;35.27;;;17.43;;
17363;SDS011;8799;43.594;13.526;2024-01-27T13:46:42;40.13;;;18.37;;
17363;SDS011;8799;43.594;13.526;2024-01-27T13:49:10;34.93;;;17.63;;
17363;SDS011;8799;43.594;13.526;2024-01-27T13:51:40;39.53;;;17.30;;
17363;SDS011;8799;43.594;13.526;2024-01-27T13:54:08;35.33;;;17.17;;
17363;SDS011;8799;43.594;13.526;2024-01-27T13:56:36;33.70;;;16.27;;
17363;SDS011;8799;43.594;13.526;2024-01-27T13:59:04;41.67;;;17.70;;
17363;SDS011;8799;43.594;13.526;2024-01-27T14:01:32;31.93;;;14.97;;
17363;SDS011;8799;43.594;13.526;2024-01-27T14:04:00;31.47;;;15.10;;
17363;SDS011;8799;43.594;13.526;2024-01-27T14:06:28;31.93;;;16.00;;
17363;SDS011;8799;43.594;13.526;2024-01-27T14:08:57;34.00;;;15.43;;
17363;SDS011;8799;43.594;13.526;2024-01-27T14:11:26;31.57;;;15.67;;
17363;SDS011;8799;43.594;13.526;2024-01-27T14:13:54;31.33;;;15.87;;
17363;SDS011;8799;43.594;13.526;2024-01-27T14:16:22;31.87;;;15.10;;
17363;SDS011;8799;43.594;13.526;2024-01-27T14:18:50;30.47;;;14.73;;
17363;SDS011;8799;43.594;13.526;2024-01-27T14:21:18;29.20;;;13.77;;
17363;SDS011;8799;43.594;13.526;2024-01-27T14:23:46;30.47;;;15.10;;
17363;SDS011;8799;43.594;13.526;2024-01-27T14:26:15;31.50;;;14.43;;
17363;SDS011;8799;43.594;13.526;2024-01-27T14:28:43;26.93;;;13.53;;
17363;SDS011;8799;43.594;13.526;2024-01-27T14:31:11;32.43;;;14.07;;
17363;SDS011;8799;43.594;13.526;2024-01-27T14:33:38;29.53;;;13.90;;
17363;SDS011;8799;43.594;13.526;2024-01-27T14:36:06;27.87;;;13.90;;
17363;SDS011;8799;43.594;13.526;2024-01-27T14:38:34;24.27;;;13.07;;